Time;durP1;ratioP1;P1;durP2;ratioP2;P2;SDS_P1;SDS_P2;PMS_P1;PMS_P2;Temp;Humidity;BMP_temperature;BMP_pressure;BME280_temperature;BME280_humidity;BME280_pressure;Samples;Min_cycle;Max_cycle;Signal;HPM_P1;HPM_P2
2021/12/08 00:00:30;;;;;;;2.60;1.90;;;;;;;;;;5040467;28;20617;-79
2021/12/08 00:02:59;;;;;;;2.77;1.60;;;;;;;;;;5024420;28;20663;-78
2021/12/08 00:05:25;;;;;;;2.03;1.60;;;;;;;;;;5056695;28;20296;-78
2021/12/08 00:07:52;;;;;;;2.60;1.63;;;;;;;;;;5056964;28;20208;-78
2021/12/08 00:13:03;;;;;;;2.67;1.80;;;;;;;;;;5075036;28;20230;-79
2021/12/08 00:15:31;;;;;;;2.10;1.60;;;;;;;;;;5041047;28;20204;-79
2021/12/08 00:17:57;;;;;;;3.37;1.93;;;;;;;;;;5056968;28;20187;-79
2021/12/08 00:20:23;;;;;;;2.60;1.70;;;;;;;;;;5040423;28;20201;-79
2021/12/08 00:22:49;;;;;;;4.37;1.90;;;;;;;;;;5056481;28;20268;-79
2021/12/08 00:25:15;;;;;;;2.70;1.80;;;;;;;;;;5056605;28;20196;-79
2021/12/08 00:27:42;;;;;;;2.23;1.73;;;;;;;;;;5056370;28;20177;-79
2021/12/08 00:30:08;;;;;;;3.20;1.97;;;;;;;;;;5056222;28;20189;-79
2021/12/08 00:32:36;;;;;;;3.27;1.63;;;;;;;;;;5056485;28;20173;-79
2021/12/08 00:35:02;;;;;;;2.00;1.60;;;;;;;;;;5040005;28;20188;-79
2021/12/08 00:37:28;;;;;;;3.73;2.10;;;;;;;;;;5040099;28;20217;-79
2021/12/08 00:39:54;;;;;;;2.63;1.80;;;;;;;;;;5039270;28;20216;-77
2021/12/08 00:42:21;;;;;;;3.40;1.80;;;;;;;;;;5056444;28;20238;-77
2021/12/08 00:44:47;;;;;;;2.77;1.53;;;;;;;;;;5056479;28;20291;-77
2021/12/08 00:47:13;;;;;;;2.27;1.80;;;;;;;;;;5056661;28;20180;-76
2021/12/08 00:49:40;;;;;;;5.63;2.20;;;;;;;;;;5040177;28;20545;-79
2021/12/08 00:52:06;;;;;;;3.03;2.10;;;;;;;;;;5039657;28;20177;-77
2021/12/08 00:54:33;;;;;;;3.10;2.13;;;;;;;;;;5039787;28;20222;-77
2021/12/08 00:56:59;;;;;;;3.33;2.00;;;;;;;;;;5039557;28;20267;-77
2021/12/08 00:59:25;;;;;;;2.20;1.90;;;;;;;;;;5056080;28;20558;-76
2021/12/08 01:01:51;;;;;;;2.87;1.77;;;;;;;;;;5055847;28;20273;-76
2021/12/08 01:04:17;;;;;;;3.77;2.40;;;;;;;;;;5056192;28;20553;-76
2021/12/08 01:06:44;;;;;;;4.33;2.73;;;;;;;;;;5039926;28;20181;-77
2021/12/08 01:09:12;;;;;;;4.30;2.40;;;;;;;;;;5039242;28;20185;-77
2021/12/08 01:11:38;;;;;;;2.63;2.10;;;;;;;;;;5039874;28;20195;-76
2021/12/08 01:14:05;;;;;;;5.37;2.23;;;;;;;;;;5039333;28;20275;-77
2021/12/08 01:16:31;;;;;;;3.90;2.43;;;;;;;;;;5056079;28;20186;-77
2021/12/08 01:18:58;;;;;;;3.60;2.33;;;;;;;;;;5039291;28;20184;-76
2021/12/08 01:21:24;;;;;;;3.50;2.60;;;;;;;;;;5055706;28;20201;-77
2021/12/08 01:23:50;;;;;;;5.97;2.17;;;;;;;;;;5039363;28;20177;-76
2021/12/08 01:26:17;;;;;;;3.77;1.90;;;;;;;;;;5055668;28;20606;-77
2021/12/08 01:28:44;;;;;;;2.80;2.07;;;;;;;;;;5055633;28;20180;-76
2021/12/08 01:31:10;;;;;;;3.43;2.00;;;;;;;;;;5055637;28;20194;-77
2021/12/08 01:33:36;;;;;;;3.13;2.00;;;;;;;;;;5055721;28;20230;-76
2021/12/08 01:36:04;;;;;;;2.50;2.17;;;;;;;;;;5055808;28;20263;-76
2021/12/08 01:38:30;;;;;;;3.00;2.03;;;;;;;;;;5039161;28;20215;-77
2021/12/08 01:40:56;;;;;;;3.23;2.07;;;;;;;;;;5038332;28;20220;-76
2021/12/08 01:43:28;;;;;;;3.87;2.27;;;;;;;;;;5055796;28;20177;-76
2021/12/08 01:46:02;;;;;;;5.53;2.03;;;;;;;;;;5055656;28;20213;-77
2021/12/08 01:48:33;;;;;;;4.43;2.30;;;;;;;;;;5039024;28;20650;-77
2021/12/08 01:51:04;;;;;;;2.20;1.53;;;;;;;;;;5054797;28;20205;-79
2021/12/08 01:53:30;;;;;;;3.43;2.00;;;;;;;;;;5039036;28;20181;-76
2021/12/08 01:55:57;;;;;;;2.63;1.97;;;;;;;;;;5055427;28;20184;-77
2021/12/08 01:58:24;;;;;;;2.63;1.90;;;;;;;;;;5055596;28;20180;-78
2021/12/08 02:00:56;;;;;;;4.37;2.30;;;;;;;;;;5038705;28;20582;-77
2021/12/08 02:03:26;;;;;;;2.80;1.80;;;;;;;;;;5055268;28;20231;-77
2021/12/08 02:05:52;;;;;;;2.80;2.00;;;;;;;;;;5055260;28;20201;-77
2021/12/08 02:08:19;;;;;;;4.27;1.97;;;;;;;;;;5055132;28;20180;-76
2021/12/08 02:10:45;;;;;;;4.53;1.87;;;;;;;;;;5038966;28;20217;-76
2021/12/08 02:13:11;;;;;;;2.13;1.87;;;;;;;;;;5055618;28;20172;-77
2021/12/08 02:15:38;;;;;;;2.40;1.57;;;;;;;;;;5038972;28;20671;-76
2021/12/08 02:18:05;;;;;;;2.73;1.97;;;;;;;;;;5055625;28;20181;-77
2021/12/08 02:20:32;;;;;;;3.47;1.90;;;;;;;;;;5055235;28;20296;-76
2021/12/08 02:22:58;;;;;;;2.27;1.73;;;;;;;;;;5055710;28;20181;-76
2021/12/08 02:25:26;;;;;;;2.13;1.70;;;;;;;;;;5038668;28;20227;-76
2021/12/08 02:27:53;;;;;;;2.87;1.90;;;;;;;;;;5038596;28;20181;-79
2021/12/08 02:47:05;;;;;;;2.03;1.70;;;;;;;;;;5058261;28;20184;-76
2021/12/08 02:49:32;;;;;;;2.80;1.90;;;;;;;;;;5055250;28;20566;-76
2021/12/08 02:51:58;;;;;;;2.50;1.80;;;;;;;;;;5054634;28;20173;-76
2021/12/08 02:54:24;;;;;;;1.70;1.60;;;;;;;;;;5055509;28;20187;-76
2021/12/08 02:56:54;;;;;;;4.03;1.77;;;;;;;;;;5038954;28;20181;-76
2021/12/08 02:59:20;;;;;;;3.73;1.70;;;;;;;;;;5054955;28;20181;-76
2021/12/08 03:01:46;;;;;;;2.10;1.60;;;;;;;;;;5038572;28;20186;-76
2021/12/08 03:04:12;;;;;;;5.13;1.90;;;;;;;;;;5057694;28;20651;-76
2021/12/08 03:06:38;;;;;;;3.30;1.93;;;;;;;;;;5058323;28;20652;-76
2021/12/08 03:09:05;;;;;;;2.67;1.60;;;;;;;;;;5041973;28;20173;-76
2021/12/08 03:11:31;;;;;;;2.20;1.60;;;;;;;;;;5041301;28;20719;-78
2021/12/08 03:13:59;;;;;;;2.80;1.50;;;;;;;;;;5057878;28;20177;-77
2021/12/08 03:16:25;;;;;;;1.97;1.70;;;;;;;;;;5041734;28;20181;-79
2021/12/08 03:18:51;;;;;;;3.07;1.60;;;;;;;;;;5058042;28;20181;-79
2021/12/08 03:21:18;;;;;;;2.53;1.57;;;;;;;;;;5041575;28;20209;-78
2021/12/08 03:26:13;;;;;;;2.40;1.50;;;;;;;;;;5075597;28;20204;-76
2021/12/08 03:28:47;;;;;;;4.50;1.83;;;;;;;;;;5058015;28;20176;-76
2021/12/08 03:31:17;;;;;;;1.90;1.43;;;;;;;;;;5042227;28;20203;-76
2021/12/08 03:33:44;;;;;;;3.00;1.80;;;;;;;;;;5041838;28;20598;-76
2021/12/08 03:36:10;;;;;;;2.23;1.60;;;;;;;;;;5057795;28;20173;-76
2021/12/08 03:38:39;;;;;;;2.70;1.63;;;;;;;;;;5057710;28;20528;-76
2021/12/08 03:41:07;;;;;;;1.83;1.67;;;;;;;;;;5041057;28;20228;-76
2021/12/08 03:43:33;;;;;;;1.90;1.60;;;;;;;;;;5057653;28;20187;-76
2021/12/08 03:46:00;;;;;;;2.93;1.60;;;;;;;;;;5040944;28;20201;-76
2021/12/08 03:48:28;;;;;;;2.80;1.70;;;;;;;;;;5041184;28;20648;-76
2021/12/08 03:50:56;;;;;;;2.20;1.63;;;;;;;;;;5057371;28;20220;-76
2021/12/08 03:53:22;;;;;;;1.93;1.77;;;;;;;;;;5040519;28;20180;-76
2021/12/08 03:55:50;;;;;;;2.67;2.00;;;;;;;;;;5040720;28;20204;-79
2021/12/08 03:58:17;;;;;;;2.43;1.77;;;;;;;;;;5040546;28;20181;-76
2021/12/08 04:00:43;;;;;;;2.13;1.80;;;;;;;;;;5056906;28;20193;-77
2021/12/08 04:03:11;;;;;;;2.10;1.70;;;;;;;;;;5040788;28;20218;-76
2021/12/08 04:05:46;;;;;;;2.80;1.60;;;;;;;;;;5056863;28;20201;-76
2021/12/08 04:08:18;;;;;;;2.77;1.63;;;;;;;;;;5041767;28;20180;-76
2021/12/08 04:10:49;;;;;;;2.43;1.70;;;;;;;;;;5040864;28;20193;-78
2021/12/08 04:13:16;;;;;;;2.17;1.70;;;;;;;;;;5040492;28;20177;-76
2021/12/08 04:15:43;;;;;;;3.77;1.90;;;;;;;;;;5040261;28;20188;-76
2021/12/08 04:18:09;;;;;;;2.10;1.63;;;;;;;;;;5040242;28;20188;-80
2021/12/08 04:20:46;;;;;;;2.43;1.70;;;;;;;;;;5039814;28;20201;-78
2021/12/08 04:23:14;;;;;;;2.70;1.80;;;;;;;;;;5040117;28;20181;-76
2021/12/08 04:25:42;;;;;;;2.67;1.70;;;;;;;;;;5040406;28;20299;-76
2021/12/08 04:28:10;;;;;;;2.23;1.80;;;;;;;;;;5040260;28;20173;-76
2021/12/08 04:30:42;;;;;;;2.60;1.90;;;;;;;;;;5056230;28;20597;-76
2021/12/08 04:33:09;;;;;;;2.27;1.87;;;;;;;;;;5056653;28;20173;-76
2021/12/08 04:35:36;;;;;;;2.00;1.63;;;;;;;;;;5039920;28;20217;-76
2021/12/08 04:38:05;;;;;;;2.27;1.60;;;;;;;;;;5039850;28;20185;-76
2021/12/08 04:40:41;;;;;;;1.80;1.63;;;;;;;;;;5039534;28;20216;-76
2021/12/08 04:43:16;;;;;;;1.30;1.20;;;;;;;;;;5040957;28;20181;-78
2021/12/08 04:45:57;;;;;;;1.60;1.23;;;;;;;;;;5056443;28;20232;-76
2021/12/08 05:07:30;;;;;;;1.10;1.00;;;;;;;;;;5058147;28;20569;-76
2021/12/08 05:09:57;;;;;;;1.93;1.00;;;;;;;;;;5042104;28;20551;-76
2021/12/08 05:12:28;;;;;;;1.77;0.97;;;;;;;;;;5038954;28;20635;-76
2021/12/08 05:14:54;;;;;;;1.20;1.10;;;;;;;;;;5055777;28;20193;-78
2021/12/08 05:17:23;;;;;;;0.80;0.80;;;;;;;;;;5055471;28;20277;-78
2021/12/08 05:19:51;;;;;;;1.07;1.00;;;;;;;;;;5038730;28;20197;-76
2021/12/08 05:22:20;;;;;;;1.60;1.00;;;;;;;;;;5055235;28;20259;-76
2021/12/08 05:24:49;;;;;;;1.20;1.07;;;;;;;;;;5039170;28;20213;-76
2021/12/08 05:27:20;;;;;;;1.10;1.00;;;;;;;;;;5055409;28;20183;-77
2021/12/08 05:29:48;;;;;;;1.43;1.20;;;;;;;;;;5055291;28;20189;-79
2021/12/08 05:32:14;;;;;;;1.57;1.40;;;;;;;;;;5054979;28;20704;-76
2021/12/08 05:34:41;;;;;;;2.23;1.17;;;;;;;;;;5038890;28;20201;-76
2021/12/08 05:37:08;;;;;;;1.63;1.27;;;;;;;;;;5038934;28;20192;-77
2021/12/08 05:39:35;;;;;;;1.70;1.23;;;;;;;;;;5055224;28;20219;-76
2021/12/08 05:42:03;;;;;;;1.30;1.20;;;;;;;;;;5054916;28;20181;-77
2021/12/08 05:44:30;;;;;;;2.03;1.30;;;;;;;;;;5055109;28;20205;-76
2021/12/08 05:46:58;;;;;;;1.40;1.30;;;;;;;;;;5038637;28;20209;-76
2021/12/08 05:49:24;;;;;;;1.40;1.30;;;;;;;;;;5038439;28;20598;-76
2021/12/08 05:51:51;;;;;;;1.20;1.10;;;;;;;;;;5038570;28;20172;-77
2021/12/08 05:54:20;;;;;;;1.20;1.10;;;;;;;;;;5038814;28;20173;-76
2021/12/08 05:56:48;;;;;;;2.20;1.50;;;;;;;;;;5038777;28;20184;-76
2021/12/08 05:59:15;;;;;;;1.20;1.10;;;;;;;;;;5038208;28;20177;-76
2021/12/08 06:01:56;;;;;;;1.57;1.23;;;;;;;;;;5054294;28;20177;-76
2021/12/08 06:04:23;;;;;;;1.67;1.30;;;;;;;;;;5054959;28;20263;-76
2021/12/08 06:06:49;;;;;;;1.40;1.27;;;;;;;;;;5038188;28;20276;-76
2021/12/08 06:09:17;;;;;;;1.80;1.40;;;;;;;;;;5037952;28;20185;-79
2021/12/08 06:11:44;;;;;;;1.43;1.30;;;;;;;;;;5037667;28;20255;-79
2021/12/08 06:14:10;;;;;;;1.57;1.47;;;;;;;;;;5036967;28;20188;-81
2021/12/08 06:16:37;;;;;;;1.27;1.10;;;;;;;;;;5054432;28;20180;-80
2021/12/08 06:19:06;;;;;;;1.30;1.20;;;;;;;;;;5038117;28;20173;-79
2021/12/08 06:21:32;;;;;;;2.53;1.30;;;;;;;;;;5037616;28;20607;-80
2021/12/08 06:23:58;;;;;;;1.50;1.40;;;;;;;;;;5054375;28;20260;-80
2021/12/08 06:26:26;;;;;;;1.50;1.40;;;;;;;;;;5054290;28;20258;-80
2021/12/08 06:28:52;;;;;;;1.47;1.37;;;;;;;;;;5054200;28;20177;-80
2021/12/08 06:31:19;;;;;;;1.77;1.40;;;;;;;;;;5038021;28;20214;-80
2021/12/08 06:33:45;;;;;;;1.70;1.57;;;;;;;;;;5037914;28;20173;-80
2021/12/08 06:36:17;;;;;;;1.60;1.30;;;;;;;;;;5054265;28;20180;-80
2021/12/08 06:38:44;;;;;;;2.43;1.40;;;;;;;;;;5056883;28;20226;-80
2021/12/08 06:41:19;;;;;;;1.50;1.40;;;;;;;;;;5041704;28;20216;-80
2021/12/08 06:43:47;;;;;;;1.77;1.40;;;;;;;;;;5057846;28;20720;-80
2021/12/08 06:46:14;;;;;;;1.37;1.27;;;;;;;;;;5057990;28;20205;-80
2021/12/08 06:48:42;;;;;;;1.50;1.33;;;;;;;;;;5057908;28;20210;-76
2021/12/08 06:51:13;;;;;;;2.07;1.80;;;;;;;;;;5057688;28;20189;-80
2021/12/08 06:53:42;;;;;;;1.73;1.53;;;;;;;;;;5058086;28;20173;-80
2021/12/08 06:56:28;;;;;;;1.50;1.40;;;;;;;;;;5058172;28;20197;-80
2021/12/08 06:58:57;;;;;;;1.70;1.60;;;;;;;;;;5058507;28;20675;-80
2021/12/08 07:01:45;;;;;;;3.23;1.73;;;;;;;;;;5041775;28;20204;-80
2021/12/08 07:07:00;;;;;;;4.20;1.83;;;;;;;;;;5058185;28;20177;-79
2021/12/08 07:09:29;;;;;;;1.97;1.70;;;;;;;;;;5057299;28;20177;-79
2021/12/08 07:11:57;;;;;;;1.90;1.70;;;;;;;;;;5057036;28;20659;-80
2021/12/08 07:14:24;;;;;;;1.63;1.53;;;;;;;;;;5057518;28;20259;-80
2021/12/08 07:16:52;;;;;;;3.57;1.57;;;;;;;;;;5040964;28;20238;-80
2021/12/08 07:19:33;;;;;;;2.27;2.03;;;;;;;;;;5041054;28;20185;-79
2021/12/08 07:22:00;;;;;;;2.33;1.67;;;;;;;;;;5056911;28;20183;-82
2021/12/08 07:24:29;;;;;;;2.13;1.80;;;;;;;;;;5040632;28;20213;-79
2021/12/08 07:26:56;;;;;;;2.37;1.70;;;;;;;;;;5040670;28;20209;-80
2021/12/08 07:29:24;;;;;;;2.60;1.90;;;;;;;;;;5040628;28;20243;-80
2021/12/08 07:31:56;;;;;;;2.97;1.90;;;;;;;;;;5056902;28;20203;-80
2021/12/08 07:34:23;;;;;;;2.97;1.80;;;;;;;;;;5040854;28;20231;-81
2021/12/08 07:36:59;;;;;;;2.67;1.80;;;;;;;;;;5057504;28;20173;-81
2021/12/08 07:39:28;;;;;;;2.70;2.03;;;;;;;;;;5040805;28;20187;-80
2021/12/08 07:41:56;;;;;;;2.17;1.93;;;;;;;;;;5040757;28;20207;-83
2021/12/08 07:44:23;;;;;;;2.07;1.80;;;;;;;;;;5057127;28;20192;-80
2021/12/08 07:46:51;;;;;;;2.43;2.00;;;;;;;;;;5040653;28;20671;-80
2021/12/08 07:49:24;;;;;;;2.37;2.00;;;;;;;;;;5055737;28;20174;-79
2021/12/08 07:51:55;;;;;;;2.30;1.87;;;;;;;;;;5056683;28;20173;-80
2021/12/08 07:54:22;;;;;;;3.70;2.07;;;;;;;;;;5040282;28;20176;-80
2021/12/08 07:56:51;;;;;;;2.67;1.90;;;;;;;;;;5040656;28;20277;-81
2021/12/08 07:59:18;;;;;;;2.00;1.80;;;;;;;;;;5040433;28;20173;-80
2021/12/08 08:01:46;;;;;;;3.83;2.00;;;;;;;;;;5056749;28;20276;-79
2021/12/08 08:04:14;;;;;;;2.37;2.10;;;;;;;;;;5056687;28;20170;-80
2021/12/08 08:06:42;;;;;;;3.13;2.20;;;;;;;;;;5039787;28;20188;-80
2021/12/08 08:09:11;;;;;;;3.87;2.43;;;;;;;;;;5056533;28;20169;-79
2021/12/08 08:11:42;;;;;;;4.00;2.53;;;;;;;;;;5056256;28;20173;-79
2021/12/08 08:14:10;;;;;;;3.03;2.43;;;;;;;;;;5040356;28;20631;-79
2021/12/08 08:16:37;;;;;;;3.93;2.60;;;;;;;;;;5056552;28;20247;-79
2021/12/08 08:19:09;;;;;;;2.90;2.40;;;;;;;;;;5056236;28;20173;-79
2021/12/08 08:21:37;;;;;;;3.30;2.20;;;;;;;;;;5056413;28;20170;-82
2021/12/08 08:24:04;;;;;;;4.57;2.17;;;;;;;;;;5039657;28;20181;-80
2021/12/08 08:26:31;;;;;;;2.40;2.20;;;;;;;;;;5039690;28;20299;-79
2021/12/08 08:28:57;;;;;;;2.00;1.80;;;;;;;;;;5056024;28;20266;-81
2021/12/08 08:31:26;;;;;;;1.93;1.73;;;;;;;;;;5039163;28;20189;-79
2021/12/08 08:33:52;;;;;;;1.90;1.70;;;;;;;;;;5039428;28;20514;-79
2021/12/08 08:36:20;;;;;;;3.10;1.70;;;;;;;;;;5055885;28;20176;-79
2021/12/08 08:38:50;;;;;;;1.50;1.40;;;;;;;;;;5055755;28;20180;-79
2021/12/08 08:41:19;;;;;;;1.60;1.40;;;;;;;;;;5039120;28;20609;-79
2021/12/08 08:43:46;;;;;;;1.70;1.60;;;;;;;;;;5055440;28;20177;-79
2021/12/08 08:46:15;;;;;;;1.97;1.77;;;;;;;;;;5039406;28;20197;-80
2021/12/08 08:48:43;;;;;;;2.10;1.70;;;;;;;;;;5039856;28;20177;-80
2021/12/08 08:51:09;;;;;;;1.40;1.30;;;;;;;;;;5038320;28;20193;-80
2021/12/08 08:53:37;;;;;;;2.00;1.60;;;;;;;;;;5054913;28;20180;-80
2021/12/08 08:56:08;;;;;;;1.77;1.40;;;;;;;;;;5038904;28;20231;-79
2021/12/08 08:58:35;;;;;;;1.60;1.50;;;;;;;;;;5039259;28;20169;-79
2021/12/08 09:01:06;;;;;;;2.00;1.80;;;;;;;;;;5055088;28;20197;-80
2021/12/08 09:03:34;;;;;;;1.50;1.40;;;;;;;;;;5055790;28;20183;-81
2021/12/08 09:06:22;;;;;;;1.67;1.43;;;;;;;;;;5055379;28;20204;-80
2021/12/08 09:08:48;;;;;;;2.03;1.60;;;;;;;;;;5055422;28;20180;-80
2021/12/08 09:11:17;;;;;;;2.40;1.93;;;;;;;;;;5055124;28;20193;-79
2021/12/08 09:13:52;;;;;;;2.20;1.60;;;;;;;;;;5038667;28;20291;-79
2021/12/08 09:16:20;;;;;;;1.50;1.20;;;;;;;;;;5055443;28;20205;-79
2021/12/08 09:18:59;;;;;;;1.73;1.40;;;;;;;;;;5055096;28;20231;-80
2021/12/08 09:21:38;;;;;;;1.60;1.40;;;;;;;;;;5054766;28;20211;-79
2021/12/08 09:24:05;;;;;;;2.10;1.37;;;;;;;;;;5055646;28;20170;-79
2021/12/08 09:26:32;;;;;;;2.53;1.37;;;;;;;;;;5055102;28;20294;-79
2021/12/08 09:29:01;;;;;;;2.93;1.50;;;;;;;;;;5054792;28;20264;-80
2021/12/08 09:31:33;;;;;;;3.10;1.33;;;;;;;;;;5038125;28;20227;-79
2021/12/08 09:34:02;;;;;;;1.70;1.40;;;;;;;;;;5055034;28;20209;-79
2021/12/08 09:36:38;;;;;;;1.93;1.40;;;;;;;;;;5055211;28;20183;-80
2021/12/08 09:39:25;;;;;;;1.53;1.33;;;;;;;;;;5055239;28;20180;-79
2021/12/08 09:41:54;;;;;;;2.17;1.50;;;;;;;;;;5041087;28;20265;-80
2021/12/08 09:44:22;;;;;;;1.67;1.50;;;;;;;;;;5054791;28;20197;-80
2021/12/08 09:46:49;;;;;;;3.10;2.07;;;;;;;;;;5038553;28;20252;-79
2021/12/08 09:49:17;;;;;;;2.13;1.60;;;;;;;;;;5038436;28;20182;-80
2021/12/08 09:51:43;;;;;;;2.20;1.80;;;;;;;;;;5037910;28;20239;-80
2021/12/08 09:54:10;;;;;;;1.90;1.67;;;;;;;;;;5038326;28;20245;-80
2021/12/08 09:56:37;;;;;;;1.60;1.50;;;;;;;;;;5038261;28;20240;-80
2021/12/08 09:59:09;;;;;;;2.77;1.80;;;;;;;;;;5037827;28;20182;-79
2021/12/08 10:01:38;;;;;;;3.47;1.87;;;;;;;;;;5037993;28;20190;-79
2021/12/08 10:04:04;;;;;;;2.83;1.70;;;;;;;;;;5054727;28;20177;-80
2021/12/08 10:06:30;;;;;;;2.87;2.03;;;;;;;;;;5037965;28;20210;-79
2021/12/08 10:08:58;;;;;;;3.07;1.77;;;;;;;;;;5037805;28;20179;-79
2021/12/08 10:11:25;;;;;;;5.00;2.10;;;;;;;;;;5054253;28;20196;-79
2021/12/08 10:13:51;;;;;;;2.03;1.83;;;;;;;;;;5057466;28;20170;-79
2021/12/08 10:16:17;;;;;;;2.50;1.80;;;;;;;;;;5058165;28;20705;-79
2021/12/08 10:18:44;;;;;;;2.37;1.90;;;;;;;;;;5058639;28;20270;-79
2021/12/08 10:21:10;;;;;;;3.80;2.20;;;;;;;;;;5041497;28;20547;-79
2021/12/08 10:23:37;;;;;;;2.20;2.00;;;;;;;;;;5041846;28;20179;-79
2021/12/08 10:26:08;;;;;;;3.67;2.27;;;;;;;;;;5058156;28;20323;-79
2021/12/08 10:28:36;;;;;;;4.27;2.17;;;;;;;;;;5058829;28;20618;-80
2021/12/08 10:31:09;;;;;;;2.60;2.40;;;;;;;;;;5042109;28;20672;-79
2021/12/08 10:33:58;;;;;;;3.77;2.27;;;;;;;;;;5058558;28;20183;-79
2021/12/08 10:36:47;;;;;;;3.10;2.20;;;;;;;;;;5058338;28;20181;-80
2021/12/08 10:39:15;;;;;;;3.00;2.03;;;;;;;;;;5044346;28;20212;-80
2021/12/08 10:41:48;;;;;;;2.40;2.17;;;;;;;;;;5058063;28;20198;-79
2021/12/08 10:44:14;;;;;;;2.20;1.90;;;;;;;;;;5058368;28;20171;-79
2021/12/08 10:46:41;;;;;;;3.60;2.43;;;;;;;;;;5058054;28;20213;-80
2021/12/08 10:49:24;;;;;;;2.97;2.20;;;;;;;;;;5041474;28;20175;-79
2021/12/08 10:54:36;;;;;;;5.03;2.37;;;;;;;;;;5060892;28;20211;-78
2021/12/08 10:57:04;;;;;;;2.93;2.40;;;;;;;;;;5041782;28;20184;-79
2021/12/08 10:59:57;;;;;;;4.87;2.47;;;;;;;;;;5041706;28;20202;-79
2021/12/08 11:02:37;;;;;;;3.40;2.40;;;;;;;;;;5028262;28;20183;-79
2021/12/08 11:08:02;;;;;;;3.70;2.50;;;;;;;;;;5076054;28;20175;-80
2021/12/08 11:10:28;;;;;;;3.50;2.70;;;;;;;;;;5041786;28;20722;-79
2021/12/08 11:12:55;;;;;;;3.83;2.60;;;;;;;;;;5041563;28;20186;-79
2021/12/08 11:15:22;;;;;;;3.13;2.60;;;;;;;;;;5041676;28;20184;-79
2021/12/08 11:17:49;;;;;;;3.60;2.53;;;;;;;;;;5041733;28;20211;-79
2021/12/08 11:20:29;;;;;;;3.43;2.53;;;;;;;;;;5057609;28;20199;-80
2021/12/08 11:23:03;;;;;;;3.00;2.60;;;;;;;;;;5041936;28;20187;-81
2021/12/08 11:25:34;;;;;;;3.33;2.60;;;;;;;;;;5059187;28;20210;-78
2021/12/08 11:28:20;;;;;;;3.47;2.60;;;;;;;;;;5057469;28;20175;-78
2021/12/08 11:30:47;;;;;;;5.10;2.87;;;;;;;;;;5056216;28;20199;-76
2021/12/08 11:33:16;;;;;;;2.90;2.57;;;;;;;;;;5056797;28;20204;-77
2021/12/08 11:35:42;;;;;;;4.20;2.77;;;;;;;;;;5056714;28;20715;-77
2021/12/08 11:38:08;;;;;;;4.10;3.20;;;;;;;;;;5040030;28;20229;-77
2021/12/08 11:40:35;;;;;;;3.13;2.60;;;;;;;;;;5039417;28;20219;-77
2021/12/08 11:43:01;;;;;;;3.70;3.13;;;;;;;;;;5039767;28;20181;-77
2021/12/08 11:45:27;;;;;;;5.37;3.30;;;;;;;;;;5040010;28;20207;-77
2021/12/08 11:47:53;;;;;;;3.53;2.93;;;;;;;;;;5040362;28;20173;-76
2021/12/08 11:50:21;;;;;;;5.10;3.30;;;;;;;;;;5040224;28;20547;-79
2021/12/08 11:52:51;;;;;;;3.83;3.00;;;;;;;;;;5056814;28;20551;-79
2021/12/08 11:55:19;;;;;;;4.53;3.20;;;;;;;;;;5057115;28;20182;-79
2021/12/08 11:58:05;;;;;;;3.60;3.00;;;;;;;;;;5056899;28;20179;-78
2021/12/08 12:00:33;;;;;;;4.40;2.73;;;;;;;;;;5056917;28;20745;-79
2021/12/08 12:03:15;;;;;;;4.27;2.90;;;;;;;;;;5056559;28;20181;-78
2021/12/08 12:05:42;;;;;;;5.33;3.10;;;;;;;;;;5040590;28;20631;-79
2021/12/08 12:08:10;;;;;;;4.87;2.63;;;;;;;;;;5040191;28;20669;-78
2021/12/08 12:10:39;;;;;;;4.60;3.03;;;;;;;;;;5056306;28;20587;-76
2021/12/08 12:13:08;;;;;;;8.73;3.47;;;;;;;;;;5056524;28;20177;-76
2021/12/08 12:15:36;;;;;;;3.10;2.60;;;;;;;;;;5056487;28;20205;-76
2021/12/08 12:18:02;;;;;;;3.23;2.87;;;;;;;;;;5040032;28;20275;-78
2021/12/08 12:20:39;;;;;;;3.73;2.97;;;;;;;;;;5039315;28;20196;-79
2021/12/08 12:23:08;;;;;;;3.47;2.97;;;;;;;;;;5056377;28;20189;-79
2021/12/08 12:25:43;;;;;;;3.83;3.43;;;;;;;;;;5056214;28;20250;-78
2021/12/08 12:28:28;;;;;;;5.07;3.50;;;;;;;;;;5055995;28;20180;-78
2021/12/08 12:31:17;;;;;;;5.60;3.93;;;;;;;;;;5055766;28;20261;-78
2021/12/08 12:33:45;;;;;;;4.40;3.47;;;;;;;;;;5055930;28;20176;-78
2021/12/08 12:36:18;;;;;;;4.17;3.27;;;;;;;;;;5055510;28;20181;-78
2021/12/08 12:38:45;;;;;;;4.87;3.50;;;;;;;;;;5055927;28;20180;-78
2021/12/08 12:41:23;;;;;;;3.53;3.10;;;;;;;;;;5075306;23;20244;-77
2021/12/08 12:43:49;;;;;;;4.00;3.27;;;;;;;;;;5034531;28;20569;-77
2021/12/08 12:46:17;;;;;;;3.80;3.37;;;;;;;;;;5017941;28;20215;-77
2021/12/08 12:48:49;;;;;;;5.67;3.80;;;;;;;;;;5034392;28;20236;-77
2021/12/08 12:51:16;;;;;;;5.27;4.00;;;;;;;;;;5033777;28;20225;-77
2021/12/08 12:53:49;;;;;;;6.17;5.33;;;;;;;;;;5034227;28;20178;-78
2021/12/08 12:56:15;;;;;;;6.77;3.90;;;;;;;;;;5035172;28;20175;-78
2021/12/08 12:58:46;;;;;;;5.83;3.53;;;;;;;;;;5034596;28;20182;-77
2021/12/08 13:01:17;;;;;;;5.57;3.60;;;;;;;;;;5034211;28;20236;-78
2021/12/08 13:03:44;;;;;;;6.30;5.53;;;;;;;;;;5035280;28;20177;-77
2021/12/08 13:06:12;;;;;;;8.23;7.13;;;;;;;;;;5018079;28;20202;-77
2021/12/08 13:08:40;;;;;;;5.90;3.90;;;;;;;;;;5032980;28;20177;-78
2021/12/08 13:11:33;;;;;;;3.87;3.23;;;;;;;;;;5034149;28;20195;-78
2021/12/08 13:13:59;;;;;;;5.13;3.47;;;;;;;;;;5033184;28;20178;-77
2021/12/08 13:16:33;;;;;;;5.07;3.30;;;;;;;;;;5032155;28;20178;-77
2021/12/08 13:19:07;;;;;;;6.60;4.97;;;;;;;;;;5015188;28;20189;-77
2021/12/08 13:21:45;;;;;;;5.87;4.73;;;;;;;;;;5014977;28;20680;-77
2021/12/08 13:24:30;;;;;;;4.50;4.07;;;;;;;;;;5031555;28;20547;-77
2021/12/08 13:27:00;;;;;;;4.80;3.90;;;;;;;;;;5031586;28;20214;-77
2021/12/08 13:29:27;;;;;;;4.80;4.00;;;;;;;;;;5031610;28;20185;-77
2021/12/08 13:31:59;;;;;;;5.20;4.07;;;;;;;;;;5032440;28;20194;-79
2021/12/08 13:34:33;;;;;;;5.43;3.60;;;;;;;;;;5042878;28;20170;-79
2021/12/08 13:37:12;;;;;;;4.63;3.40;;;;;;;;;;5042270;28;20189;-79
2021/12/08 13:39:39;;;;;;;6.40;3.17;;;;;;;;;;5039974;28;20189;-79
2021/12/08 13:42:09;;;;;;;8.97;6.13;;;;;;;;;;5016277;28;20584;-78
2021/12/08 13:44:36;;;;;;;6.20;4.50;;;;;;;;;;5034132;28;20182;-79
2021/12/08 13:47:22;;;;;;;4.70;4.10;;;;;;;;;;5032937;28;20170;-79
2021/12/08 13:49:51;;;;;;;8.07;4.13;;;;;;;;;;5033846;28;20181;-78
2021/12/08 13:52:20;;;;;;;7.50;4.30;;;;;;;;;;5032388;28;20545;-79
2021/12/08 13:54:48;;;;;;;10.83;7.73;;;;;;;;;;5034421;28;20170;-79
2021/12/08 13:57:31;;;;;;;18.30;10.83;;;;;;;;;;5032904;28;20205;-84
2021/12/08 13:59:58;;;;;;;26.10;16.70;;;;;;;;;;5016357;28;20178;-78
2021/12/08 14:02:29;;;;;;;24.60;15.53;;;;;;;;;;5039812;28;20217;-79
2021/12/08 14:05:00;;;;;;;21.73;14.37;;;;;;;;;;5043313;28;20202;-79
2021/12/08 14:07:26;;;;;;;14.13;10.83;;;;;;;;;;5042543;28;20185;-79
2021/12/08 14:09:56;;;;;;;6.00;4.57;;;;;;;;;;5025705;28;20648;-79
2021/12/08 14:12:22;;;;;;;5.63;3.93;;;;;;;;;;5042525;28;20226;-79
2021/12/08 14:14:58;;;;;;;6.20;3.40;;;;;;;;;;5040443;28;20174;-79
2021/12/08 14:17:28;;;;;;;4.33;3.23;;;;;;;;;;5019896;28;20214;-79
2021/12/08 14:19:54;;;;;;;4.23;3.20;;;;;;;;;;5031416;28;20272;-80
2021/12/08 14:22:20;;;;;;;5.67;3.67;;;;;;;;;;5031376;28;20175;-79
2021/12/08 14:24:56;;;;;;;4.43;3.30;;;;;;;;;;5031636;28;20174;-80
2021/12/08 14:27:29;;;;;;;4.80;3.20;;;;;;;;;;5015161;28;20173;-80
2021/12/08 14:29:57;;;;;;;4.97;3.40;;;;;;;;;;5031463;28;20197;-80
2021/12/08 14:32:23;;;;;;;7.33;3.43;;;;;;;;;;5015180;28;20181;-79
2021/12/08 14:34:49;;;;;;;5.70;3.70;;;;;;;;;;5031576;28;20178;-80
2021/12/08 14:37:15;;;;;;;6.67;4.33;;;;;;;;;;5031379;28;20166;-79
2021/12/08 14:39:44;;;;;;;5.97;4.27;;;;;;;;;;5032073;28;20228;-79
2021/12/08 14:42:14;;;;;;;4.47;3.20;;;;;;;;;;5031946;28;20228;-80
2021/12/08 14:44:42;;;;;;;6.47;3.77;;;;;;;;;;5015732;28;20180;-79
2021/12/08 14:47:13;;;;;;;5.97;3.67;;;;;;;;;;5016295;28;20182;-78
2021/12/08 14:49:41;;;;;;;7.80;4.50;;;;;;;;;;5015271;28;20273;-80
2021/12/08 14:52:11;;;;;;;9.17;5.00;;;;;;;;;;5015477;28;20819;-80
2021/12/08 14:54:38;;;;;;;8.20;4.77;;;;;;;;;;5015621;28;20644;-80
2021/12/08 14:57:05;;;;;;;7.93;4.00;;;;;;;;;;5015092;28;20178;-79
2021/12/08 14:59:32;;;;;;;5.33;3.60;;;;;;;;;;5033873;28;20188;-79
2021/12/08 15:01:58;;;;;;;5.93;3.80;;;;;;;;;;5035152;28;20194;-80
2021/12/08 15:04:24;;;;;;;5.33;3.70;;;;;;;;;;5018928;28;20277;-79
2021/12/08 15:06:57;;;;;;;5.20;3.40;;;;;;;;;;5019150;28;20210;-80
2021/12/08 15:09:26;;;;;;;6.73;3.90;;;;;;;;;;5035509;28;20212;-80
2021/12/08 15:11:56;;;;;;;5.00;3.03;;;;;;;;;;5019095;28;20205;-80
2021/12/08 15:14:23;;;;;;;5.37;3.20;;;;;;;;;;5025403;28;20174;-80
2021/12/08 15:16:50;;;;;;;5.87;3.40;;;;;;;;;;5040696;28;20182;-80
2021/12/08 15:19:16;;;;;;;5.27;3.50;;;;;;;;;;5041453;28;20189;-80
2021/12/08 15:21:46;;;;;;;4.77;3.13;;;;;;;;;;5041009;28;20208;-80
2021/12/08 15:24:14;;;;;;;4.93;3.20;;;;;;;;;;5041910;28;20173;-80
2021/12/08 15:26:40;;;;;;;4.80;3.30;;;;;;;;;;5040520;28;20213;-80
2021/12/08 15:29:16;;;;;;;7.03;3.60;;;;;;;;;;5040164;28;20184;-80
2021/12/08 15:31:42;;;;;;;5.47;3.80;;;;;;;;;;5039015;28;20204;-80
2021/12/08 15:34:20;;;;;;;6.30;3.63;;;;;;;;;;5031215;28;20212;-80
2021/12/08 15:36:59;;;;;;;4.83;3.90;;;;;;;;;;5022716;28;20192;-80
2021/12/08 15:39:26;;;;;;;6.33;4.20;;;;;;;;;;5038485;28;20177;-80
2021/12/08 15:41:52;;;;;;;12.27;6.17;;;;;;;;;;5040505;28;20227;-80
2021/12/08 15:44:20;;;;;;;11.17;5.67;;;;;;;;;;5040295;28;20178;-80